This is the latest recevied weather packets stored in our database for station/object KC3UTO. If no packets are shown the sender has not sent any weather packets the latest 10 day(s).
| Time | Temp. | Humidity | Pressure | Rain* | Wind** | Luminosity | Snow |
|---|---|---|---|---|---|---|---|
| 1777866216 | 6.67° C | 64% | 1013.1 hPa | 0 mm | - | 0 W/m² | - |
| 1777865611 | 7.22° C | 62% | 1012.7 hPa | 0 mm | - | 0 W/m² | - |
| 1777863488 | 7.78° C | 53% | 1012.5 hPa | 0 mm | - | 0 W/m² | - |
| 1777847421 | 15.56° C | 29% | 1011 hPa | 0 mm | - | 68 W/m² | - |
| 1777846818 | 16.11° C | 28% | 1010.9 hPa | 0 mm | - | 55 W/m² | - |
| 1777846516 | 15.56° C | 29% | 1011.2 hPa | 0 mm | - | 64 W/m² | - |
| 1777845909 | 15.56° C | 27% | 1011 hPa | 0 mm | - | 102 W/m² | - |
| 1777845303 | 15.56° C | 27% | 1011 hPa | 0 mm | - | 67 W/m² | - |
| 1777845000 | 15.56° C | 26% | 1011 hPa | 0 mm | - | 75 W/m² | - |
| 1777844698 | 15.56° C | 26% | 1011 hPa | 0 mm | - | 64 W/m² | - |
| 1777840756 | 15.56° C | 27% | 1011.1 hPa | 0 mm | - | 139 W/m² | - |
| 1777840150 | 15° C | 27% | 1011.1 hPa | 0 mm | - | 99 W/m² | - |
| 1777839546 | 15° C | 27% | 1011 hPa | 0 mm | - | 74 W/m² | - |
| 1777838334 | 14.44° C | 29% | 1011.5 hPa | 0 mm | - | 95 W/m² | - |
| 1777837120 | 14.44° C | 30% | 1011.8 hPa | 0 mm | - | 247 W/m² | - |
| 1777835601 | 13.89° C | 29% | 1011.8 hPa | 0 mm | - | 242 W/m² | - |
| 1777834995 | 14.44° C | 30% | 1012 hPa | 0 mm | - | 181 W/m² | - |
| 1777833480 | 12.78° C | 30% | 1012.2 hPa | 0 mm | - | 200 W/m² | - |
| 1777833178 | 13.33° C | 30% | 1012.2 hPa | 0 mm | - | 267 W/m² | - |
| 1777832875 | 13.33° C | 29% | 1012.3 hPa | 0 mm | - | 922 W/m² | - |
| 1777831663 | 13.33° C | 30% | 1012.1 hPa | 0 mm | - | 977 W/m² | - |
| 1777831362 | 12.78° C | 30% | 1012.2 hPa | 0 mm | - | 991 W/m² | - |
| 1777831058 | 13.89° C | 30% | 1012.3 hPa | 0 mm | - | 879 W/m² | - |
| 1777830151 | 12.78° C | 32% | 1012.4 hPa | 0 mm | - | 1107 W/m² | - |
| 1777828941 | 12.78° C | 30% | 1012.6 hPa | 0 mm | - | 360 W/m² | - |
* Rain latest hour (hover to see other rain measurements)
** Current wind speed in m/s (hover to see current wind gust speed)